sensor_id;sensor_type;location;lat;lon;timestamp;P1;durP1;ratioP1;P2;durP2;ratioP2
1164;SDS011;571;50.930;6.926;2023-05-23T02:49:58;5.93;;;4.70;;
1164;SDS011;571;50.930;6.926;2023-05-23T02:53:05;5.40;;;4.80;;
1164;SDS011;571;50.930;6.926;2023-05-23T02:59:40;6.20;;;5.07;;
1164;SDS011;571;50.930;6.926;2023-05-23T03:33:04;8.30;;;6.87;;
1164;SDS011;571;50.930;6.926;2023-05-23T04:07:35;8.77;;;7.17;;
1164;SDS011;571;50.930;6.926;2023-05-23T04:10:36;8.23;;;6.80;;
1164;SDS011;571;50.930;6.926;2023-05-23T04:17:37;4.67;;;4.07;;
1164;SDS011;571;50.930;6.926;2023-05-23T10:30:37;8.90;;;6.30;;
1164;SDS011;571;50.930;6.926;2023-05-23T11:37:54;10.03;;;5.83;;
1164;SDS011;571;50.930;6.926;2023-05-23T11:40:34;7.97;;;6.70;;
1164;SDS011;571;50.930;6.926;2023-05-23T11:43:28;10.60;;;7.20;;
1164;SDS011;571;50.930;6.926;2023-05-23T11:46:20;10.87;;;6.90;;
1164;SDS011;571;50.930;6.926;2023-05-23T11:53:21;9.50;;;7.10;;
1164;SDS011;571;50.930;6.926;2023-05-23T11:58:30;10.50;;;8.60;;
1164;SDS011;571;50.930;6.926;2023-05-23T12:01:39;15.23;;;8.20;;
1164;SDS011;571;50.930;6.926;2023-05-23T13:41:15;8.17;;;5.37;;
1164;SDS011;571;50.930;6.926;2023-05-23T13:47:50;6.60;;;4.80;;
1164;SDS011;571;50.930;6.926;2023-05-23T13:52:30;9.17;;;6.47;;
1164;SDS011;571;50.930;6.926;2023-05-23T15:25:52;14.17;;;10.20;;
1164;SDS011;571;50.930;6.926;2023-05-23T15:42:17;7.40;;;5.13;;
1164;SDS011;571;50.930;6.926;2023-05-23T16:27:10;8.33;;;6.40;;
1164;SDS011;571;50.930;6.926;2023-05-23T16:46:45;10.87;;;7.90;;
1164;SDS011;571;50.930;6.926;2023-05-23T16:49:38;10.80;;;8.87;;
1164;SDS011;571;50.930;6.926;2023-05-23T16:52:22;10.47;;;8.93;;
1164;SDS011;571;50.930;6.926;2023-05-23T16:55:04;11.47;;;10.27;;
1164;SDS011;571;50.930;6.926;2023-05-23T16:58:00;10.43;;;8.87;;
1164;SDS011;571;50.930;6.926;2023-05-23T17:00:53;9.83;;;7.70;;
1164;SDS011;571;50.930;6.926;2023-05-23T17:03:39;11.50;;;7.70;;
1164;SDS011;571;50.930;6.926;2023-05-23T17:06:37;9.50;;;7.33;;
1164;SDS011;571;50.930;6.926;2023-05-23T17:09:39;8.63;;;6.50;;
1164;SDS011;571;50.930;6.926;2023-05-23T17:13:03;10.03;;;7.50;;
1164;SDS011;571;50.930;6.926;2023-05-23T17:15:42;7.30;;;6.57;;
1164;SDS011;571;50.930;6.926;2023-05-23T17:18:46;15.90;;;7.50;;
1164;SDS011;571;50.930;6.926;2023-05-23T17:21:12;12.60;;;8.17;;
1164;SDS011;571;50.930;6.926;2023-05-23T17:23:41;13.77;;;7.60;;
1164;SDS011;571;50.930;6.926;2023-05-23T17:26:08;9.53;;;6.03;;
1164;SDS011;571;50.930;6.926;2023-05-23T17:28:37;9.77;;;4.80;;
1164;SDS011;571;50.930;6.926;2023-05-23T17:34:40;9.53;;;5.70;;
1164;SDS011;571;50.930;6.926;2023-05-23T17:37:26;7.47;;;4.90;;
1164;SDS011;571;50.930;6.926;2023-05-23T17:40:29;9.90;;;4.40;;
1164;SDS011;571;50.930;6.926;2023-05-23T17:43:28;13.33;;;4.93;;
1164;SDS011;571;50.930;6.926;2023-05-23T17:46:18;12.10;;;5.57;;
1164;SDS011;571;50.930;6.926;2023-05-23T17:49:16;9.83;;;6.93;;
1164;SDS011;571;50.930;6.926;2023-05-23T17:52:23;14.80;;;8.80;;
1164;SDS011;571;50.930;6.926;2023-05-23T17:54:50;12.63;;;8.97;;
1164;SDS011;571;50.930;6.926;2023-05-23T17:57:41;11.20;;;9.77;;
1164;SDS011;571;50.930;6.926;2023-05-23T18:00:23;10.20;;;9.20;;
1164;SDS011;571;50.930;6.926;2023-05-23T18:03:15;13.47;;;8.83;;
1164;SDS011;571;50.930;6.926;2023-05-23T18:05:44;10.37;;;7.40;;
1164;SDS011;571;50.930;6.926;2023-05-23T18:08:17;10.23;;;7.43;;
1164;SDS011;571;50.930;6.926;2023-05-23T18:10:47;10.83;;;7.07;;
1164;SDS011;571;50.930;6.926;2023-05-23T18:13:20;8.83;;;7.33;;
1164;SDS011;571;50.930;6.926;2023-05-23T18:15:50;11.90;;;6.47;;
1164;SDS011;571;50.930;6.926;2023-05-23T18:18:31;11.87;;;5.97;;
1164;SDS011;571;50.930;6.926;2023-05-23T18:21:02;10.07;;;6.00;;
1164;SDS011;571;50.930;6.926;2023-05-23T18:23:34;10.70;;;5.70;;
1164;SDS011;571;50.930;6.926;2023-05-23T18:26:05;16.67;;;5.33;;
1164;SDS011;571;50.930;6.926;2023-05-23T18:28:46;6.47;;;4.90;;
1164;SDS011;571;50.930;6.926;2023-05-23T18:34:48;6.37;;;4.80;;
1164;SDS011;571;50.930;6.926;2023-05-23T18:37:34;8.47;;;5.77;;
1164;SDS011;571;50.930;6.926;2023-05-23T18:43:11;7.77;;;4.53;;
1164;SDS011;571;50.930;6.926;2023-05-23T18:55:06;12.23;;;4.50;;
1164;SDS011;571;50.930;6.926;2023-05-23T18:57:57;8.70;;;4.90;;
1164;SDS011;571;50.930;6.926;2023-05-23T19:00:27;9.63;;;5.07;;
1164;SDS011;571;50.930;6.926;2023-05-23T19:02:59;13.73;;;5.23;;
1164;SDS011;571;50.930;6.926;2023-05-23T19:05:35;9.27;;;5.03;;
1164;SDS011;571;50.930;6.926;2023-05-23T19:08:10;5.67;;;4.63;;
1164;SDS011;571;50.930;6.926;2023-05-23T19:10:46;8.43;;;4.37;;
1164;SDS011;571;50.930;6.926;2023-05-23T19:13:18;12.97;;;5.00;;
1164;SDS011;571;50.930;6.926;2023-05-23T19:15:53;11.03;;;4.00;;
1164;SDS011;571;50.930;6.926;2023-05-23T19:18:23;7.00;;;4.23;;
1164;SDS011;571;50.930;6.926;2023-05-23T19:20:50;8.33;;;4.10;;
1164;SDS011;571;50.930;6.926;2023-05-23T19:23:27;8.70;;;4.83;;
1164;SDS011;571;50.930;6.926;2023-05-23T19:26:06;7.30;;;3.50;;
1164;SDS011;571;50.930;6.926;2023-05-23T19:31:55;7.20;;;3.30;;
1164;SDS011;571;50.930;6.926;2023-05-23T19:34:35;10.20;;;3.73;;
1164;SDS011;571;50.930;6.926;2023-05-23T19:37:11;10.67;;;4.70;;
1164;SDS011;571;50.930;6.926;2023-05-23T19:39:41;7.33;;;4.27;;
1164;SDS011;571;50.930;6.926;2023-05-23T19:42:10;12.60;;;5.07;;
1164;SDS011;571;50.930;6.926;2023-05-23T19:44:41;10.80;;;4.40;;
1164;SDS011;571;50.930;6.926;2023-05-23T19:47:10;8.10;;;3.67;;
1164;SDS011;571;50.930;6.926;2023-05-23T19:49:42;7.33;;;3.77;;
1164;SDS011;571;50.930;6.926;2023-05-23T19:52:08;11.67;;;4.17;;
1164;SDS011;571;50.930;6.926;2023-05-23T19:54:41;13.00;;;4.67;;
1164;SDS011;571;50.930;6.926;2023-05-23T19:57:08;9.43;;;4.27;;
1164;SDS011;571;50.930;6.926;2023-05-23T19:59:39;8.17;;;4.07;;
1164;SDS011;571;50.930;6.926;2023-05-23T20:02:10;13.10;;;3.53;;
1164;SDS011;571;50.930;6.926;2023-05-23T20:04:37;11.53;;;3.97;;
1164;SDS011;571;50.930;6.926;2023-05-23T20:07:04;13.37;;;4.67;;
1164;SDS011;571;50.930;6.926;2023-05-23T20:09:31;4.70;;;3.10;;
1164;SDS011;571;50.930;6.926;2023-05-23T20:11:58;23.63;;;4.37;;
1164;SDS011;571;50.930;6.926;2023-05-23T20:14:24;8.47;;;3.87;;
1164;SDS011;571;50.930;6.926;2023-05-23T20:16:53;9.83;;;3.93;;
1164;SDS011;571;50.930;6.926;2023-05-23T20:19:20;8.50;;;4.10;;
1164;SDS011;571;50.930;6.926;2023-05-23T20:21:47;8.30;;;3.97;;
1164;SDS011;571;50.930;6.926;2023-05-23T20:24:14;8.57;;;3.40;;
1164;SDS011;571;50.930;6.926;2023-05-23T20:26:41;7.23;;;3.30;;
1164;SDS011;571;50.930;6.926;2023-05-23T20:29:10;14.00;;;4.47;;
1164;SDS011;571;50.930;6.926;2023-05-23T20:31:37;13.97;;;4.13;;
1164;SDS011;571;50.930;6.926;2023-05-23T20:34:05;11.83;;;4.30;;
1164;SDS011;571;50.930;6.926;2023-05-23T20:36:32;13.17;;;3.80;;
1164;SDS011;571;50.930;6.926;2023-05-23T20:38:59;5.27;;;3.97;;
1164;SDS011;571;50.930;6.926;2023-05-23T20:41:26;14.90;;;3.87;;
1164;SDS011;571;50.930;6.926;2023-05-23T20:43:53;10.00;;;3.40;;
1164;SDS011;571;50.930;6.926;2023-05-23T20:46:20;9.50;;;3.63;;
1164;SDS011;571;50.930;6.926;2023-05-23T20:48:47;12.23;;;4.23;;
1164;SDS011;571;50.930;6.926;2023-05-23T20:51:15;7.50;;;3.40;;
1164;SDS011;571;50.930;6.926;2023-05-23T20:53:42;10.83;;;4.00;;
1164;SDS011;571;50.930;6.926;2023-05-23T20:56:09;10.83;;;3.80;;
1164;SDS011;571;50.930;6.926;2023-05-23T20:58:36;6.37;;;3.40;;
1164;SDS011;571;50.930;6.926;2023-05-23T21:01:02;10.07;;;3.83;;
1164;SDS011;571;50.930;6.926;2023-05-23T21:03:29;6.50;;;3.03;;
1164;SDS011;571;50.930;6.926;2023-05-23T21:05:56;7.70;;;3.73;;
1164;SDS011;571;50.930;6.926;2023-05-23T21:08:24;7.43;;;3.87;;
1164;SDS011;571;50.930;6.926;2023-05-23T21:10:51;6.67;;;3.57;;
1164;SDS011;571;50.930;6.926;2023-05-23T21:13:17;8.50;;;2.80;;
1164;SDS011;571;50.930;6.926;2023-05-23T21:28:19;8.70;;;3.23;;
1164;SDS011;571;50.930;6.926;2023-05-23T21:31:25;8.60;;;3.33;;
1164;SDS011;571;50.930;6.926;2023-05-23T21:34:44;7.33;;;2.80;;
1164;SDS011;571;50.930;6.926;2023-05-23T21:37:47;3.70;;;2.60;;
1164;SDS011;571;50.930;6.926;2023-05-23T21:43:18;6.33;;;3.27;;
1164;SDS011;571;50.930;6.926;2023-05-23T21:48:17;12.70;;;3.07;;
1164;SDS011;571;50.930;6.926;2023-05-23T21:49:36;5.30;;;2.80;;
